Terminal Aerodrome Forecast
Issued by NWS

Home | Current Version | Previous Version | Text Only | Print | Product List | Glossary On
Versions: 1 2 3 4 5 6 7 8 9 10 11 12 13 14 15
223
FTUS42 KMLB 181721
TAFISM
TAF
KISM 181721Z 1818/1918 VRB05KT P6SM FEW050
     FM190000 21003KT P6SM SKC
     FM191600 24011KT P6SM VCSH SCT030 BKN060=

USA.gov is the U.S. government's official web portal to all federal, state and local government web resources and services.